This is the latest recevied weather packets stored in our database for station/object SP9INZ-13. If no packets are shown the sender has not sent any weather packets the latest 10 day(s).
| Time | Temp. | Humidity | Pressure | Rain* | Wind** | Luminosity | Snow |
|---|---|---|---|---|---|---|---|
| 1777460843 | 9.44° C | 29% | 1037.9 hPa | - | - | - | - |
| 1777459885 | 10.56° C | 32% | 1036.8 hPa | - | - | - | - |
| 1777458927 | 10° C | 35% | 1036.7 hPa | - | - | - | - |
| 1777457969 | 9.44° C | 35% | 1037.2 hPa | - | - | - | - |
| 1777457011 | 10° C | 39% | 1036.5 hPa | - | - | - | - |
| 1777456061 | 9.44° C | 40% | 1036.4 hPa | - | - | - | - |
| 1777456054 | 9.44° C | 40% | 1036.4 hPa | - | - | - | - |
| 1777455095 | 8.89° C | 40% | 1036.8 hPa | - | - | - | - |
| 1777454138 | 9.44° C | 40% | 1036.5 hPa | - | - | - | - |
| 1777453179 | 9.44° C | 42% | 1036.2 hPa | - | - | - | - |
| 1777452222 | 8.33° C | 44% | 1036.6 hPa | - | - | - | - |
| 1777451263 | 7.78° C | 44% | 1036.9 hPa | - | - | - | - |
| 1777450305 | 7.78° C | 44% | 1036.8 hPa | - | - | - | - |
| 1777449347 | 8.33° C | 45% | 1036.1 hPa | - | - | - | - |
| 1777448389 | 7.78° C | 47% | 1036.2 hPa | - | - | - | - |
| 1777447431 | 7.78° C | 50% | 1035.4 hPa | - | - | - | - |
| 1777446474 | 7.22° C | 51% | 1035.4 hPa | - | - | - | - |
| 1777445516 | 6.67° C | 53% | 1035.6 hPa | - | - | - | - |
| 1777444558 | 6.67° C | 54% | 1035.2 hPa | - | - | - | - |
| 1777443600 | 7.22° C | 56% | 1034.6 hPa | - | - | - | - |
| 1777442642 | 6.67° C | 57% | 1034.5 hPa | - | - | - | - |
| 1777441684 | 6.67° C | 59% | 1034.2 hPa | - | - | - | - |
| 1777440726 | 6.11° C | 60% | 1034.2 hPa | - | - | - | - |
| 1777439768 | 5.56° C | 63% | 1034.1 hPa | - | - | - | - |
| 1777438810 | 5° C | 61% | 1034.8 hPa | - | - | - | - |
* Rain since midnight (hover to see other rain measurements)
** Current wind speed in m/s (hover to see current wind gust speed)